createdAt,value
2023-01-19T00:01:39.071Z,7.20
2023-01-19T00:04:07.109Z,8.25
2023-01-19T00:06:34.946Z,9.45
2023-01-19T00:09:02.775Z,9.02
2023-01-19T00:11:30.689Z,8.77
2023-01-19T00:13:59.243Z,10.20
2023-01-19T00:16:27.229Z,12.15
2023-01-19T00:18:55.960Z,9.27
2023-01-19T00:21:23.884Z,8.45
2023-01-19T00:23:53.001Z,8.52
2023-01-19T00:26:22.621Z,6.78
2023-01-19T00:28:50.722Z,7.30
2023-01-19T00:31:20.911Z,6.65
2023-01-19T00:33:49.707Z,7.53
2023-01-19T00:36:17.621Z,7.55
2023-01-19T00:38:45.429Z,14.57
2023-01-19T00:41:13.368Z,15.43
2023-01-19T00:43:41.420Z,17.15
2023-01-19T00:46:09.453Z,23.27
2023-01-19T00:48:37.374Z,19.42
2023-01-19T00:51:05.375Z,18.48
2023-01-19T00:53:33.193Z,20.27
2023-01-19T00:56:01.002Z,19.80
2023-01-19T00:58:28.776Z,21.17
2023-01-19T01:01:04.036Z,22.08
2023-01-19T01:03:32.569Z,14.35
2023-01-19T01:06:00.449Z,25.50
2023-01-19T01:08:28.300Z,12.70
2023-01-19T01:10:56.368Z,13.90
2023-01-19T01:13:26.335Z,18.92
2023-01-19T01:15:55.789Z,24.70
2023-01-19T01:18:23.845Z,21.95
2023-01-19T01:20:51.657Z,24.52
2023-01-19T01:23:23.298Z,46.75
2023-01-19T01:25:51.200Z,32.53
2023-01-19T01:28:19.117Z,46.70
2023-01-19T01:30:46.933Z,42.17
2023-01-19T01:33:14.727Z,38.40
2023-01-19T01:35:42.555Z,32.70
2023-01-19T01:38:10.496Z,23.88
2023-01-19T01:40:41.423Z,29.02
2023-01-19T01:43:16.511Z,27.13
2023-01-19T01:45:44.683Z,29.58
2023-01-19T01:48:14.154Z,27.48
2023-01-19T01:51:08.461Z,23.55
2023-01-19T01:53:36.387Z,25.63
2023-01-19T01:56:06.485Z,26.92
2023-01-19T01:58:35.269Z,31.27
2023-01-19T02:01:21.597Z,46.00
2023-01-19T02:03:49.664Z,52.17
2023-01-19T02:06:17.708Z,55.95
2023-01-19T02:09:13.951Z,35.08
2023-01-19T02:12:00.035Z,41.50
2023-01-19T02:14:28.191Z,43.92
2023-01-19T02:16:56.035Z,47.50
2023-01-19T02:19:31.581Z,45.35
2023-01-19T02:22:13.319Z,38.90
2023-01-19T02:24:41.328Z,32.72
2023-01-19T02:27:09.419Z,25.00
2023-01-19T02:29:37.112Z,31.67
2023-01-19T02:32:06.214Z,32.47
2023-01-19T02:34:34.117Z,30.90
2023-01-19T02:37:13.277Z,27.83
2023-01-19T02:39:51.160Z,25.27
2023-01-19T02:42:23.654Z,24.55
2023-01-19T02:44:51.564Z,24.58
2023-01-19T02:47:20.173Z,23.70
2023-01-19T02:50:01.000Z,22.92
2023-01-19T02:52:28.816Z,23.05
2023-01-19T02:55:02.481Z,22.45
2023-01-19T02:57:33.514Z,16.83
2023-01-19T03:00:23.163Z,17.98
2023-01-19T03:02:53.798Z,17.48
2023-01-19T03:05:38.734Z,13.63
2023-01-19T03:08:22.520Z,11.30
2023-01-19T03:11:02.962Z,12.15
2023-01-19T03:13:55.736Z,12.65
2023-01-19T03:19:08.980Z,10.40
2023-01-19T03:21:37.721Z,8.68
2023-01-19T03:24:07.037Z,12.18
2023-01-19T03:26:38.305Z,12.18
2023-01-19T03:29:07.381Z,11.77
2023-01-19T03:31:35.131Z,11.35
2023-01-19T03:34:06.133Z,12.15
2023-01-19T03:37:05.240Z,10.65
2023-01-19T03:39:33.096Z,11.45
2023-01-19T03:42:03.599Z,12.73
2023-01-19T03:44:31.919Z,13.30
2023-01-19T03:46:59.817Z,14.23
2023-01-19T03:49:27.882Z,14.48
2023-01-19T03:51:59.399Z,15.93
2023-01-19T03:54:27.539Z,15.10
2023-01-19T03:56:55.480Z,13.70
2023-01-19T03:59:23.426Z,17.52
2023-01-19T04:01:51.165Z,20.70
2023-01-19T04:04:19.270Z,19.63
2023-01-19T04:06:47.205Z,23.13
2023-01-19T04:09:15.093Z,28.73
2023-01-19T04:11:42.998Z,27.45
2023-01-19T04:14:11.143Z,30.48
2023-01-19T04:16:38.975Z,23.95
2023-01-19T04:19:06.821Z,24.00
2023-01-19T04:21:34.663Z,27.15
2023-01-19T04:24:02.627Z,31.30
2023-01-19T04:26:30.557Z,33.20
2023-01-19T04:28:58.939Z,30.45
2023-01-19T04:31:26.796Z,30.58
2023-01-19T04:33:54.885Z,33.13
2023-01-19T04:36:22.747Z,30.30
2023-01-19T04:38:50.880Z,29.20
2023-01-19T04:41:19.046Z,29.95
2023-01-19T04:43:48.095Z,31.48
2023-01-19T04:46:16.072Z,32.90
2023-01-19T04:48:44.021Z,31.35
2023-01-19T04:51:12.360Z,30.50
2023-01-19T04:53:40.708Z,29.50
2023-01-19T04:56:08.506Z,27.58
2023-01-19T04:58:36.955Z,30.80
2023-01-19T05:01:09.071Z,31.77
2023-01-19T05:03:37.224Z,31.45
2023-01-19T05:06:07.847Z,32.42
2023-01-19T05:08:35.672Z,32.60
2023-01-19T05:11:04.071Z,35.88
2023-01-19T05:13:33.895Z,32.90
2023-01-19T05:16:02.189Z,30.52
2023-01-19T05:18:36.404Z,28.38
2023-01-19T05:21:04.803Z,29.67
2023-01-19T05:23:33.188Z,38.10
2023-01-19T05:26:02.334Z,44.95
2023-01-19T05:28:30.955Z,51.65
2023-01-19T05:30:59.135Z,56.13
2023-01-19T05:33:28.135Z,56.05
2023-01-19T05:35:55.930Z,56.95
2023-01-19T05:38:34.465Z,58.88
2023-01-19T05:41:02.939Z,56.65
2023-01-19T05:43:30.741Z,47.30
2023-01-19T05:45:58.676Z,51.60
2023-01-19T05:48:26.551Z,29.17
2023-01-19T05:50:58.603Z,28.30
2023-01-19T05:53:26.559Z,23.48
2023-01-19T05:55:54.742Z,27.83
2023-01-19T05:58:22.679Z,33.55
2023-01-19T06:00:50.766Z,29.35
2023-01-19T06:03:19.125Z,21.75
2023-01-19T06:05:47.429Z,16.95
2023-01-19T06:08:18.054Z,16.02
2023-01-19T06:10:45.926Z,14.40
2023-01-19T06:13:13.719Z,13.27
2023-01-19T06:15:43.187Z,13.00
2023-01-19T06:18:17.339Z,12.23
2023-01-19T06:20:45.209Z,10.93
2023-01-19T06:23:13.055Z,10.40
2023-01-19T06:25:40.903Z,11.23
2023-01-19T06:28:08.688Z,8.02
2023-01-19T06:30:36.495Z,12.27
2023-01-19T06:33:04.254Z,13.10
2023-01-19T06:35:32.264Z,11.05
2023-01-19T06:37:59.984Z,12.20
2023-01-19T06:40:28.126Z,14.63
2023-01-19T06:42:56.077Z,13.15
2023-01-19T06:45:23.990Z,13.63
2023-01-19T06:47:51.974Z,12.98
2023-01-19T06:50:19.883Z,12.95
2023-01-19T06:52:51.348Z,13.45
2023-01-19T06:55:19.358Z,16.27
2023-01-19T06:57:47.827Z,17.25
2023-01-19T07:00:16.666Z,18.08
2023-01-19T07:02:44.658Z,19.73
2023-01-19T07:05:14.777Z,22.17
2023-01-19T07:07:43.621Z,24.00
2023-01-19T07:10:16.780Z,28.35
2023-01-19T07:12:46.966Z,29.80
2023-01-19T07:15:19.960Z,29.52
2023-01-19T07:17:47.920Z,29.60
2023-01-19T07:20:15.953Z,26.45
2023-01-19T07:22:46.113Z,25.98
2023-01-19T07:25:14.531Z,29.98
2023-01-19T07:27:42.421Z,28.63
2023-01-19T07:30:10.783Z,30.70
2023-01-19T07:32:38.817Z,29.17
2023-01-19T07:35:06.869Z,31.33
2023-01-19T07:37:34.801Z,30.50
2023-01-19T07:40:02.636Z,32.08
2023-01-19T07:42:30.674Z,32.92
2023-01-19T07:44:58.771Z,24.52
2023-01-19T07:47:26.483Z,21.73
2023-01-19T07:49:54.412Z,24.52
2023-01-19T07:52:23.357Z,25.67
2023-01-19T07:54:51.473Z,30.08
2023-01-19T07:57:19.833Z,30.52
2023-01-19T07:59:47.749Z,20.88
2023-01-19T08:02:16.444Z,17.55
2023-01-19T08:04:45.246Z,15.65
2023-01-19T08:07:13.170Z,14.30
2023-01-19T08:09:41.317Z,11.07
2023-01-19T08:12:09.149Z,13.75
2023-01-19T08:14:37.083Z,15.63
2023-01-19T08:17:04.982Z,16.35
2023-01-19T08:19:32.744Z,14.95
2023-01-19T08:22:00.638Z,13.93
2023-01-19T08:24:29.527Z,15.25
2023-01-19T08:27:00.971Z,15.13
2023-01-19T08:29:31.191Z,15.90
2023-01-19T08:32:00.530Z,14.73
2023-01-19T08:34:28.328Z,15.20
2023-01-19T08:36:56.163Z,16.67
2023-01-19T08:39:24.985Z,20.13
2023-01-19T08:41:55.813Z,20.75
2023-01-19T08:44:23.619Z,18.70
2023-01-19T08:46:51.595Z,21.45
2023-01-19T08:49:19.410Z,27.85
2023-01-19T08:51:49.971Z,28.88
2023-01-19T08:54:18.720Z,36.78
2023-01-19T08:56:46.694Z,36.95
2023-01-19T08:59:14.493Z,40.83
2023-01-19T09:01:42.605Z,45.33
2023-01-19T09:04:10.581Z,49.95
2023-01-19T09:06:38.631Z,50.85
2023-01-19T09:09:06.377Z,54.97
2023-01-19T09:11:35.314Z,58.45
2023-01-19T09:14:03.791Z,59.45
2023-01-19T09:16:31.675Z,57.33
2023-01-19T09:18:59.650Z,61.25
2023-01-19T09:21:27.492Z,60.50
2023-01-19T09:23:55.505Z,51.45
2023-01-19T09:26:24.119Z,58.35
2023-01-19T09:28:51.991Z,62.30
2023-01-19T09:31:20.042Z,47.30
2023-01-19T09:33:48.045Z,34.58
2023-01-19T09:36:15.991Z,29.58
2023-01-19T09:38:44.046Z,22.10
2023-01-19T09:41:19.876Z,16.42
2023-01-19T09:43:57.181Z,14.07
2023-01-19T09:46:34.825Z,12.70
2023-01-19T09:49:05.430Z,13.30
2023-01-19T09:51:36.922Z,11.02
2023-01-19T09:54:21.200Z,12.05
2023-01-19T09:56:52.369Z,13.15
2023-01-19T09:59:30.782Z,12.27
2023-01-19T10:02:16.191Z,12.98
2023-01-19T10:04:45.018Z,13.18
2023-01-19T10:07:17.619Z,13.00
2023-01-19T10:12:27.058Z,14.30
2023-01-19T10:17:52.289Z,14.10
2023-01-19T10:20:27.885Z,16.90
2023-01-19T10:22:55.955Z,15.00
2023-01-19T10:25:26.895Z,16.00
2023-01-19T10:27:54.719Z,14.75
2023-01-19T10:30:24.268Z,17.63
2023-01-19T10:32:52.340Z,17.25
2023-01-19T10:35:24.820Z,16.00
2023-01-19T10:38:02.443Z,17.27
2023-01-19T10:40:54.070Z,16.98
2023-01-19T10:43:37.471Z,10.75
2023-01-19T10:46:34.111Z,13.57
2023-01-19T10:49:02.050Z,11.02
2023-01-19T10:51:30.009Z,13.52
2023-01-19T10:54:02.601Z,15.75
2023-01-19T10:59:06.362Z,13.00
2023-01-19T11:01:37.591Z,17.08
2023-01-19T11:04:32.133Z,15.55
2023-01-19T11:07:19.192Z,14.13
2023-01-19T11:09:48.118Z,13.88
2023-01-19T11:12:23.557Z,14.70
2023-01-19T11:14:51.823Z,15.00
2023-01-19T11:17:26.038Z,14.65
2023-01-19T11:20:01.447Z,11.73
2023-01-19T11:22:33.465Z,11.50
2023-01-19T11:25:02.736Z,9.02
2023-01-19T11:27:31.767Z,11.60
2023-01-19T11:30:02.218Z,11.60
2023-01-19T11:32:30.064Z,11.82
2023-01-19T11:34:58.437Z,10.75
2023-01-19T11:37:29.268Z,11.07
2023-01-19T11:40:03.016Z,12.93
2023-01-19T11:42:32.227Z,13.68
2023-01-19T11:45:06.939Z,13.90
2023-01-19T11:47:52.975Z,13.82
2023-01-19T11:50:34.523Z,14.43
2023-01-19T11:53:05.699Z,14.73
2023-01-19T11:55:44.901Z,16.42
2023-01-19T11:58:17.023Z,15.85
2023-01-19T12:00:50.597Z,12.02
2023-01-19T12:03:42.608Z,14.63
2023-01-19T12:06:13.086Z,12.80
2023-01-19T12:09:02.435Z,13.15
2023-01-19T12:11:36.182Z,13.02
2023-01-19T12:14:04.057Z,12.23
2023-01-19T12:16:33.484Z,13.63
2023-01-19T12:19:11.820Z,11.88
2023-01-19T12:21:39.956Z,10.73
2023-01-19T12:24:23.952Z,10.23
2023-01-19T12:27:17.705Z,10.02
2023-01-19T12:29:45.980Z,11.32
2023-01-19T12:32:14.032Z,10.93
2023-01-19T12:34:52.326Z,12.32
2023-01-19T12:37:29.458Z,11.27
2023-01-19T12:40:01.541Z,12.60
2023-01-19T12:42:29.597Z,13.57
2023-01-19T12:45:08.426Z,14.15
2023-01-19T12:47:36.594Z,11.50
2023-01-19T12:50:19.504Z,13.45
2023-01-19T12:55:25.218Z,14.90
2023-01-19T12:58:19.232Z,14.90
2023-01-19T13:00:49.076Z,15.32
2023-01-19T13:03:17.018Z,23.45
2023-01-19T13:05:44.900Z,37.05
2023-01-19T13:08:22.412Z,55.10
2023-01-19T13:11:11.330Z,65.35
2023-01-19T13:13:40.344Z,60.45
2023-01-19T13:16:20.571Z,58.60
2023-01-19T13:18:51.140Z,57.42
2023-01-19T13:21:44.838Z,54.72
2023-01-19T13:24:15.389Z,52.40
2023-01-19T13:26:53.425Z,46.13
2023-01-19T13:29:31.824Z,39.40
2023-01-19T13:32:03.608Z,40.85
2023-01-19T13:34:37.130Z,41.37
2023-01-19T13:37:06.717Z,43.72
2023-01-19T13:39:46.675Z,45.80
2023-01-19T13:42:28.786Z,48.42
2023-01-19T13:44:59.041Z,39.70
2023-01-19T13:47:45.714Z,50.15
2023-01-19T13:50:20.619Z,44.33
2023-01-19T13:52:49.429Z,45.78
2023-01-19T13:55:17.484Z,50.67
2023-01-19T13:57:45.922Z,56.42
2023-01-19T14:00:16.250Z,58.58
2023-01-19T14:02:56.292Z,55.67
2023-01-19T14:05:31.325Z,35.72
2023-01-19T14:08:14.113Z,46.97
2023-01-19T14:10:55.095Z,52.47
2023-01-19T14:13:30.701Z,58.90
2023-01-19T14:16:00.704Z,62.33
2023-01-19T14:18:32.796Z,62.05
2023-01-19T14:21:19.920Z,63.90
2023-01-19T14:23:49.306Z,73.30
2023-01-19T14:26:39.705Z,74.90
2023-01-19T14:29:10.603Z,83.22
2023-01-19T14:31:49.652Z,84.18
2023-01-19T14:34:36.077Z,85.25
2023-01-19T14:37:04.640Z,77.88
2023-01-19T14:39:34.379Z,78.18
2023-01-19T14:42:03.618Z,72.47
2023-01-19T14:44:41.465Z,77.25
2023-01-19T14:47:27.859Z,70.47
2023-01-19T14:49:57.257Z,71.75
2023-01-19T14:52:37.210Z,67.35
2023-01-19T14:55:09.031Z,63.58
2023-01-19T14:57:38.267Z,65.38
2023-01-19T15:00:17.509Z,57.95
2023-01-19T15:02:46.599Z,60.53
2023-01-19T15:05:14.963Z,57.38
2023-01-19T15:07:44.181Z,58.17
2023-01-19T15:10:22.294Z,57.92
2023-01-19T15:12:50.969Z,58.70
2023-01-19T15:15:33.310Z,59.75
2023-01-19T15:18:02.083Z,59.45
2023-01-19T15:20:30.113Z,60.05
2023-01-19T15:22:58.085Z,62.50
2023-01-19T15:25:28.616Z,62.72
2023-01-19T15:27:58.488Z,64.47
2023-01-19T15:30:28.226Z,66.22
2023-01-19T15:32:56.032Z,63.28
2023-01-19T15:35:24.359Z,64.68
2023-01-19T15:37:52.277Z,64.20
2023-01-19T15:40:20.406Z,63.30
2023-01-19T15:42:48.418Z,67.07
2023-01-19T15:45:19.233Z,64.50
2023-01-19T15:47:48.079Z,71.32
2023-01-19T15:50:16.224Z,67.68
2023-01-19T15:52:44.148Z,67.35
2023-01-19T15:55:12.501Z,68.82
2023-01-19T15:57:40.334Z,70.15
2023-01-19T16:00:09.102Z,63.58
2023-01-19T16:02:39.771Z,68.33
2023-01-19T16:05:08.443Z,64.45
2023-01-19T16:07:36.551Z,73.65
2023-01-19T16:10:06.682Z,70.88
2023-01-19T16:12:34.498Z,70.38
2023-01-19T16:15:02.352Z,71.30
2023-01-19T16:17:30.027Z,73.25
2023-01-19T16:19:57.895Z,81.80
2023-01-19T16:22:25.679Z,94.05
2023-01-19T16:24:53.677Z,158.63
2023-01-19T16:27:21.560Z,160.88
2023-01-19T16:29:49.366Z,167.40
2023-01-19T16:32:17.218Z,127.00
2023-01-19T16:34:45.129Z,115.32
2023-01-19T16:37:12.969Z,110.70
2023-01-19T16:39:40.827Z,113.10
2023-01-19T16:42:08.687Z,120.35
2023-01-19T16:44:36.850Z,128.90
2023-01-19T16:47:04.686Z,123.78
2023-01-19T16:49:32.663Z,121.47
2023-01-19T16:52:00.630Z,135.57
2023-01-19T16:54:28.735Z,105.03
2023-01-19T16:56:57.147Z,99.50
2023-01-19T16:59:25.511Z,106.90
2023-01-19T17:01:53.726Z,76.65
2023-01-19T17:04:22.152Z,66.15
2023-01-19T17:06:50.574Z,57.30
2023-01-19T17:09:18.539Z,52.53
2023-01-19T17:11:46.523Z,34.78
2023-01-19T17:14:16.744Z,23.58
2023-01-19T17:16:44.777Z,17.45
2023-01-19T17:19:17.499Z,10.48
2023-01-19T17:21:46.663Z,7.43
2023-01-19T17:24:14.623Z,4.88
2023-01-19T17:26:42.845Z,5.20
2023-01-19T17:29:10.872Z,5.45
2023-01-19T17:31:38.696Z,5.55
2023-01-19T17:34:06.684Z,5.60
2023-01-19T17:36:34.558Z,5.40
2023-01-19T17:39:09.283Z,4.72
2023-01-19T17:41:37.227Z,5.40
2023-01-19T17:44:05.717Z,4.65
2023-01-19T17:46:36.306Z,5.35
2023-01-19T17:49:05.270Z,5.57
2023-01-19T17:51:33.022Z,5.10
2023-01-19T17:54:00.895Z,4.72
2023-01-19T17:56:30.561Z,3.90
2023-01-19T17:58:58.821Z,4.00
2023-01-19T18:01:28.343Z,4.10
2023-01-19T18:03:56.397Z,4.10
2023-01-19T18:06:24.316Z,4.35
2023-01-19T18:08:52.821Z,4.13
2023-01-19T18:11:21.048Z,4.38
2023-01-19T18:13:49.881Z,3.67
2023-01-19T18:16:20.271Z,4.22
2023-01-19T18:18:50.027Z,3.83
2023-01-19T18:21:18.978Z,4.38
2023-01-19T18:23:46.756Z,4.70
2023-01-19T18:26:17.218Z,4.25
2023-01-19T18:28:45.167Z,4.85
2023-01-19T18:31:14.864Z,3.95
2023-01-19T18:33:42.683Z,3.83
2023-01-19T18:36:10.644Z,3.97
2023-01-19T18:38:38.914Z,3.50
2023-01-19T18:41:08.653Z,3.38
2023-01-19T18:43:36.580Z,3.55
2023-01-19T18:46:04.477Z,4.30
2023-01-19T18:48:32.417Z,5.30
2023-01-19T18:51:03.827Z,5.90
2023-01-19T18:53:32.234Z,6.88
2023-01-19T18:56:00.674Z,7.43
2023-01-19T18:58:29.589Z,6.85
2023-01-19T19:00:57.547Z,6.47
2023-01-19T19:03:25.716Z,5.15
2023-01-19T19:05:53.839Z,5.15
2023-01-19T19:08:21.730Z,5.28
2023-01-19T19:10:49.548Z,4.63
2023-01-19T19:13:17.628Z,4.63
2023-01-19T19:15:45.417Z,5.70
2023-01-19T19:18:16.656Z,5.28
2023-01-19T19:20:44.545Z,5.03
2023-01-19T19:23:12.664Z,5.30
2023-01-19T19:25:40.586Z,4.93
2023-01-19T19:28:08.952Z,5.15
2023-01-19T19:30:39.262Z,4.28
2023-01-19T19:33:08.196Z,5.45
2023-01-19T19:35:36.027Z,4.95
2023-01-19T19:38:04.104Z,4.32
2023-01-19T19:40:31.896Z,4.20
2023-01-19T19:42:59.882Z,4.30
2023-01-19T19:45:27.880Z,4.93
2023-01-19T19:47:55.912Z,5.85
2023-01-19T19:50:23.901Z,5.93
2023-01-19T19:52:51.792Z,4.88
2023-01-19T19:55:19.637Z,6.47
2023-01-19T19:57:47.970Z,5.53
2023-01-19T20:00:16.178Z,5.20
2023-01-19T20:02:44.876Z,5.57
2023-01-19T20:05:12.654Z,5.40
2023-01-19T20:07:46.682Z,5.50
2023-01-19T20:10:14.865Z,5.72
2023-01-19T20:12:42.774Z,6.00
2023-01-19T20:15:11.457Z,6.18
2023-01-19T20:17:39.198Z,6.47
2023-01-19T20:20:07.745Z,6.68
2023-01-19T20:22:35.614Z,6.80
2023-01-19T20:25:03.371Z,7.18
2023-01-19T20:27:31.199Z,7.90
2023-01-19T20:29:59.046Z,7.68
2023-01-19T20:32:27.164Z,5.93
2023-01-19T20:34:54.921Z,6.28
2023-01-19T20:37:22.855Z,4.95
2023-01-19T20:39:50.928Z,5.30
2023-01-19T20:42:18.729Z,4.88
2023-01-19T20:44:46.538Z,3.95
2023-01-19T20:47:14.478Z,4.75
2023-01-19T20:49:42.426Z,3.60
2023-01-19T20:52:10.368Z,4.03
2023-01-19T20:54:40.163Z,3.72
2023-01-19T20:57:07.930Z,4.53
2023-01-19T20:59:37.412Z,4.88
2023-01-19T21:02:08.443Z,3.83
2023-01-19T21:04:36.284Z,5.18
2023-01-19T21:07:04.983Z,4.57
2023-01-19T21:09:32.718Z,5.72
2023-01-19T21:12:00.570Z,5.20
2023-01-19T21:14:28.577Z,5.93
2023-01-19T21:16:58.918Z,6.03
2023-01-19T21:19:26.717Z,4.80
2023-01-19T21:21:55.607Z,5.95
2023-01-19T21:24:23.668Z,5.32
2023-01-19T21:26:51.537Z,5.13
2023-01-19T21:29:19.510Z,4.05
2023-01-19T21:31:47.387Z,2.65
2023-01-19T21:34:15.363Z,3.00
2023-01-19T21:36:45.049Z,3.20
2023-01-19T21:39:13.071Z,3.42
2023-01-19T21:41:42.766Z,3.08
2023-01-19T21:44:14.458Z,2.92
2023-01-19T21:46:42.490Z,3.38
2023-01-19T21:49:19.180Z,2.63
2023-01-19T21:51:48.105Z,2.95
2023-01-19T21:54:15.858Z,2.83
2023-01-19T21:56:43.911Z,3.20
2023-01-19T21:59:15.417Z,3.35
2023-01-19T22:01:43.831Z,3.17
2023-01-19T22:04:12.036Z,3.30
2023-01-19T22:06:40.084Z,2.75
2023-01-19T22:09:08.259Z,3.72
2023-01-19T22:11:36.485Z,3.38
2023-01-19T22:14:04.220Z,3.15
2023-01-19T22:16:32.164Z,2.85
2023-01-19T22:19:01.532Z,2.80
2023-01-19T22:21:34.480Z,2.70
2023-01-19T22:24:02.961Z,2.78
2023-01-19T22:26:30.983Z,2.92
2023-01-19T22:29:00.325Z,3.00
2023-01-19T22:31:28.776Z,3.53
2023-01-19T22:33:57.032Z,2.53
2023-01-19T22:36:28.536Z,3.00
2023-01-19T22:39:00.855Z,2.75
2023-01-19T22:41:33.879Z,2.97
2023-01-19T22:44:03.610Z,3.25
2023-01-19T22:46:32.643Z,3.85
2023-01-19T22:49:00.787Z,4.10
2023-01-19T22:51:29.718Z,4.57
2023-01-19T22:53:57.843Z,4.95
2023-01-19T22:56:30.377Z,4.18
2023-01-19T22:58:58.658Z,4.32
2023-01-19T23:01:31.893Z,3.78
2023-01-19T23:04:00.556Z,3.88
2023-01-19T23:06:29.638Z,6.00
2023-01-19T23:08:59.178Z,5.88
2023-01-19T23:11:35.551Z,4.72
2023-01-19T23:14:04.504Z,5.90
2023-01-19T23:16:32.305Z,4.07
2023-01-19T23:19:00.137Z,3.83
2023-01-19T23:21:29.175Z,3.90
2023-01-19T23:23:58.226Z,3.80
2023-01-19T23:26:26.092Z,4.40
2023-01-19T23:28:58.907Z,4.35
2023-01-19T23:31:28.497Z,4.43
2023-01-19T23:34:03.396Z,4.80
2023-01-19T23:36:33.089Z,4.70
2023-01-19T23:39:03.085Z,5.20
2023-01-19T23:41:31.775Z,6.00
2023-01-19T23:43:59.688Z,4.80
2023-01-19T23:46:27.752Z,5.78
2023-01-19T23:48:56.018Z,5.78
2023-01-19T23:51:25.881Z,7.10
2023-01-19T23:53:53.838Z,7.50
2023-01-19T23:56:26.437Z,12.35
2023-01-19T23:58:56.104Z,10.90
